createdAt,value
2019-01-04T00:00:09.941Z,1024.52
2019-01-04T00:01:08.573Z,1024.53
2019-01-04T00:02:07.092Z,1024.52
2019-01-04T00:03:05.879Z,1024.53
2019-01-04T00:04:04.620Z,1024.54
2019-01-04T00:05:03.169Z,1024.56
2019-01-04T00:06:01.936Z,1024.52
2019-01-04T00:07:00.449Z,1024.57
2019-01-04T00:07:58.968Z,1024.56
2019-01-04T00:08:57.698Z,1024.54
2019-01-04T00:09:56.429Z,1024.54
2019-01-04T00:10:54.954Z,1024.61
2019-01-04T00:11:53.490Z,1024.6
2019-01-04T00:12:52.359Z,1024.6
2019-01-04T00:13:50.947Z,1024.63
2019-01-04T00:14:49.503Z,1024.66
2019-01-04T00:15:48.107Z,1024.65
2019-01-04T00:16:46.669Z,1024.66
2019-01-04T00:17:45.209Z,1024.68
2019-01-04T00:18:43.925Z,1024.65
2019-01-04T00:19:42.587Z,1024.64
2019-01-04T00:20:41.113Z,1024.64
2019-01-04T00:21:39.769Z,1024.59
2019-01-04T00:22:38.583Z,1024.61
2019-01-04T00:23:37.144Z,1024.61
2019-01-04T00:24:35.679Z,1024.66
2019-01-04T00:25:34.350Z,1024.59
2019-01-04T00:26:32.887Z,1024.68
2019-01-04T00:27:31.397Z,1024.64
2019-01-04T00:28:30.026Z,1024.63
2019-01-04T00:29:28.820Z,1024.63
2019-01-04T00:30:27.363Z,1024.66
2019-01-04T00:31:26.294Z,1024.67
2019-01-04T00:32:24.860Z,1024.7
2019-01-04T00:33:23.464Z,1024.69
2019-01-04T00:34:22.390Z,1024.66
2019-01-04T00:35:20.981Z,1024.67
2019-01-04T00:36:19.585Z,1024.65
2019-01-04T00:37:18.386Z,1024.66
2019-01-04T00:38:16.951Z,1024.67
2019-01-04T00:39:15.498Z,1024.66
2019-01-04T00:40:14.109Z,1024.7
2019-01-04T00:41:12.640Z,1024.71
2019-01-04T00:42:11.299Z,1024.71
2019-01-04T00:43:10.036Z,1024.76
2019-01-04T00:44:08.700Z,1024.65
2019-01-04T00:45:07.285Z,1024.65
2019-01-04T00:46:06.038Z,1024.67
2019-01-04T00:49:44.959Z,1024.68
2019-01-04T00:50:43.571Z,1024.61
2019-01-04T00:51:42.374Z,1024.59
2019-01-04T00:52:41.679Z,1024.62
2019-01-04T00:53:40.371Z,1024.59
2019-01-04T00:54:38.893Z,1024.57
2019-01-04T00:55:37.555Z,1024.58
2019-01-04T00:56:36.185Z,1024.51
2019-01-04T00:57:34.720Z,1024.56
2019-01-04T00:58:33.257Z,1024.47
2019-01-04T00:59:32.142Z,1024.48
2019-01-04T01:00:30.801Z,1024.47
2019-01-04T01:01:29.339Z,1024.49
2019-01-04T01:02:28.147Z,1024.48
2019-01-04T01:03:26.674Z,1024.52
2019-01-04T01:04:25.218Z,1024.54
2019-01-04T01:05:23.771Z,1024.55
2019-01-04T01:06:22.325Z,1024.54
2019-01-04T01:08:44.864Z,1024.46
2019-01-04T01:09:43.543Z,1024.47
2019-01-04T01:10:42.231Z,1024.45
2019-01-04T01:11:40.854Z,1024.46
2019-01-04T01:14:21.165Z,1024.46
2019-01-04T01:15:19.713Z,1024.5
2019-01-04T01:16:18.252Z,1024.46
2019-01-04T01:17:17.607Z,1024.44
2019-01-04T01:18:16.218Z,1024.45
2019-01-04T01:19:14.776Z,1024.47
2019-01-04T01:20:13.324Z,1024.49
2019-01-04T01:21:11.879Z,1024.51
2019-01-04T01:22:10.605Z,1024.49
2019-01-04T01:23:09.416Z,1024.49
2019-01-04T01:24:08.265Z,1024.51
2019-01-04T01:25:06.789Z,1024.51
2019-01-04T01:26:05.328Z,1024.48
2019-01-04T01:27:03.869Z,1024.51
2019-01-04T01:28:02.435Z,1024.51
2019-01-04T01:29:00.991Z,1024.5
2019-01-04T01:29:59.535Z,1024.45
2019-01-04T01:30:58.073Z,1024.5
2019-01-04T01:31:56.800Z,1024.45
2019-01-04T01:32:55.330Z,1024.47
2019-01-04T01:33:53.964Z,1024.46
2019-01-04T01:34:52.681Z,1024.44
2019-01-04T01:35:51.224Z,1024.44
2019-01-04T01:36:50.041Z,1024.4
2019-01-04T01:37:48.582Z,1024.37
2019-01-04T01:38:47.257Z,1024.41
2019-01-04T01:39:46.007Z,1024.44
2019-01-04T01:40:45.645Z,1024.43
2019-01-04T01:41:45.166Z,1024.46
2019-01-04T01:42:43.913Z,1024.39
2019-01-04T01:43:42.552Z,1024.38
2019-01-04T01:44:41.089Z,1024.37
2019-01-04T01:45:39.616Z,1024.37
2019-01-04T01:46:38.175Z,1024.34
2019-01-04T01:47:36.721Z,1024.34
2019-01-04T01:48:35.263Z,1024.35
2019-01-04T01:49:34.151Z,1024.35
2019-01-04T01:50:32.809Z,1024.28
2019-01-04T01:51:31.488Z,1024.3
2019-01-04T01:52:30.218Z,1024.3
2019-01-04T01:53:28.760Z,1024.34
2019-01-04T01:54:27.276Z,1024.35
2019-01-04T01:55:25.839Z,1024.31
2019-01-04T01:56:24.411Z,1024.3
2019-01-04T01:57:23.020Z,1024.31
2019-01-04T01:58:21.535Z,1024.27
2019-01-04T01:59:20.285Z,1024.25
2019-01-04T02:00:18.911Z,1024.25
2019-01-04T02:01:17.425Z,1024.22
2019-01-04T02:02:16.295Z,1024.23
2019-01-04T02:03:14.892Z,1024.21
2019-01-04T02:04:13.583Z,1024.19
2019-01-04T02:05:12.380Z,1024.19
2019-01-04T02:06:11.005Z,1024.22
2019-01-04T02:07:09.543Z,1024.23
2019-01-04T02:08:08.404Z,1024.2
2019-01-04T02:09:07.364Z,1024.13
2019-01-04T02:10:05.763Z,1024.16
2019-01-04T02:11:04.420Z,1024.15
2019-01-04T02:12:02.961Z,1024.15
2019-01-04T02:13:01.477Z,1024.17
2019-01-04T02:14:00.332Z,1024.14
2019-01-04T02:14:58.950Z,1024.17
2019-01-04T02:15:57.480Z,1024.16
2019-01-04T02:16:56.052Z,1024.14
2019-01-04T02:17:54.620Z,1024.16
2019-01-04T02:18:53.135Z,1024.15
2019-01-04T02:19:51.655Z,1024.15
2019-01-04T02:20:50.224Z,1024.14
2019-01-04T02:21:48.797Z,1024.17
2019-01-04T02:22:47.347Z,1024.16
2019-01-04T02:23:46.209Z,1024.18
2019-01-04T02:24:44.880Z,1024.19
2019-01-04T02:25:43.406Z,1024.23
2019-01-04T02:26:42.186Z,1024.25
2019-01-04T02:27:40.726Z,1024.26
2019-01-04T02:28:39.313Z,1024.23
2019-01-04T02:29:37.855Z,1024.27
2019-01-04T02:30:36.377Z,1024.37
2019-01-04T02:31:34.927Z,1024.31
2019-01-04T02:32:33.463Z,1024.32
2019-01-04T02:33:32.619Z,1024.33
2019-01-04T02:34:30.896Z,1024.3
2019-01-04T02:35:29.439Z,1024.33
2019-01-04T02:36:28.326Z,1024.36
2019-01-04T02:37:26.849Z,1024.31
2019-01-04T02:38:25.368Z,1024.35
2019-01-04T02:39:23.911Z,1024.4
2019-01-04T02:40:22.473Z,1024.41
2019-01-04T02:41:21.026Z,1024.45
2019-01-04T02:42:19.552Z,1024.5
2019-01-04T02:43:18.102Z,1024.47
2019-01-04T02:44:16.625Z,1024.5
2019-01-04T02:45:15.146Z,1024.54
2019-01-04T02:46:13.767Z,1024.5
2019-01-04T02:47:12.521Z,1024.59
2019-01-04T02:48:11.164Z,1024.6
2019-01-04T02:49:10.125Z,1024.61
2019-01-04T02:50:08.670Z,1024.6
2019-01-04T02:51:07.201Z,1024.64
2019-01-04T02:52:05.803Z,1024.63
2019-01-04T02:53:04.520Z,1024.54
2019-01-04T02:54:03.055Z,1024.53
2019-01-04T02:55:01.704Z,1024.54
2019-01-04T02:56:00.536Z,1024.51
2019-01-04T02:56:59.179Z,1024.52
2019-01-04T02:57:57.742Z,1024.52
2019-01-04T02:58:56.279Z,1024.47
2019-01-04T02:59:54.812Z,1024.49
2019-01-04T03:00:53.368Z,1024.44
2019-01-04T03:01:51.893Z,1024.48
2019-01-04T03:02:50.446Z,1024.45
2019-01-04T03:03:48.979Z,1024.47
2019-01-04T03:04:47.536Z,1024.49
2019-01-04T03:05:46.364Z,1024.44
2019-01-04T03:06:44.918Z,1024.43
2019-01-04T03:07:43.495Z,1024.49
2019-01-04T03:08:42.503Z,1024.4
2019-01-04T03:09:41.068Z,1024.44
2019-01-04T03:10:40.401Z,1024.43
2019-01-04T03:11:38.962Z,1024.44
2019-01-04T03:12:37.490Z,1024.44
2019-01-04T03:13:36.144Z,1024.44
2019-01-04T03:14:34.573Z,1024.37
2019-01-04T03:15:33.106Z,1024.37
2019-01-04T03:16:31.664Z,1024.36
2019-01-04T03:17:30.482Z,1024.39
2019-01-04T03:18:29.023Z,1024.36
2019-01-04T03:19:27.548Z,1024.36
2019-01-04T03:20:26.428Z,1024.36
2019-01-04T03:21:24.953Z,1024.35
2019-01-04T03:22:23.592Z,1024.31
2019-01-04T03:23:22.145Z,1024.31
2019-01-04T03:24:20.670Z,1024.28
2019-01-04T03:25:19.304Z,1024.3
2019-01-04T03:26:17.848Z,1024.3
2019-01-04T03:27:16.560Z,1024.34
2019-01-04T03:28:15.117Z,1024.28
2019-01-04T03:29:13.758Z,1024.31
2019-01-04T03:30:12.552Z,1024.36
2019-01-04T03:31:11.096Z,1024.31
2019-01-04T03:32:09.742Z,1024.28
2019-01-04T03:33:08.335Z,1024.28
2019-01-04T03:34:06.901Z,1024.23
2019-01-04T03:35:05.516Z,1024.22
2019-01-04T03:36:04.484Z,1024.2
2019-01-04T03:37:03.046Z,1024.12
2019-01-04T03:38:01.738Z,1024.15
2019-01-04T03:39:00.437Z,1024.13
2019-01-04T03:39:58.980Z,1024.21
2019-01-04T03:40:57.515Z,1024.17
2019-01-04T03:41:56.070Z,1024.23
2019-01-04T03:42:54.790Z,1024.16
2019-01-04T03:43:53.353Z,1024.18
2019-01-04T03:44:51.986Z,1024.15
2019-01-04T03:45:50.767Z,1024.19
2019-01-04T03:46:49.309Z,1024.17
2019-01-04T03:47:47.963Z,1024.12
2019-01-04T03:48:46.522Z,1024.18
2019-01-04T03:49:45.058Z,1024.17
2019-01-04T03:50:43.719Z,1024.18
2019-01-04T03:51:42.287Z,1024.17
2019-01-04T03:52:40.843Z,1024.2
2019-01-04T03:53:39.607Z,1024.17
2019-01-04T03:54:38.484Z,1024.2
2019-01-04T03:55:37.031Z,1024.18
2019-01-04T03:59:16.161Z,1024.12
2019-01-04T04:00:14.743Z,1024.15
2019-01-04T04:01:13.392Z,1024.07
2019-01-04T04:02:12.132Z,1024.14
2019-01-04T04:03:10.674Z,1024.09
2019-01-04T04:04:09.216Z,1024.09
2019-01-04T04:05:07.759Z,1024.04
2019-01-04T04:06:06.292Z,1024.08
2019-01-04T04:07:04.933Z,1024.08
2019-01-04T04:08:03.456Z,1024.05
2019-01-04T04:09:02.197Z,1024
2019-01-04T04:10:00.762Z,1024.03
2019-01-04T04:10:59.303Z,1024.07
2019-01-04T04:11:58.239Z,1024.05
2019-01-04T04:12:57.788Z,1024.09
2019-01-04T04:13:56.340Z,1024.07
2019-01-04T04:14:54.860Z,1024.06
2019-01-04T04:15:53.395Z,1024.06
2019-01-04T04:16:51.960Z,1024.06
2019-01-04T04:17:50.500Z,1024.05
2019-01-04T04:18:49.041Z,1024.02
2019-01-04T04:19:47.567Z,1024.04
2019-01-04T04:20:46.413Z,1024.06
2019-01-04T04:21:44.960Z,1024.09
2019-01-04T04:22:43.514Z,1024.06
2019-01-04T04:23:42.371Z,1024.08
2019-01-04T04:24:40.913Z,1024.07
2019-01-04T04:27:03.922Z,1024.04
2019-01-04T04:28:02.639Z,1024.07
2019-01-04T04:29:01.207Z,1024.04
2019-01-04T04:29:59.815Z,1024.1
2019-01-04T04:30:59.180Z,1024.12
2019-01-04T04:31:57.847Z,1024.15
2019-01-04T04:32:56.414Z,1024.12
2019-01-04T04:33:54.980Z,1024.21
2019-01-04T04:34:53.589Z,1024.19
2019-01-04T04:35:52.465Z,1024.14
2019-01-04T04:36:51.056Z,1024.17
2019-01-04T04:37:49.631Z,1024.09
2019-01-04T04:38:48.345Z,1024.15
2019-01-04T04:39:46.871Z,1024.12
2019-01-04T04:40:45.457Z,1024.17
2019-01-04T04:41:44.080Z,1024.12
2019-01-04T04:42:42.622Z,1024.12
2019-01-04T04:43:41.291Z,1024.09
2019-01-04T04:44:40.225Z,1024.12
2019-01-04T04:45:38.840Z,1024.05
2019-01-04T04:46:37.519Z,1024.1
2019-01-04T04:47:36.157Z,1024.07
2019-01-04T04:48:34.743Z,1024.06
2019-01-04T04:49:33.321Z,1024.1
2019-01-04T04:50:31.917Z,1024.16
2019-01-04T04:51:30.643Z,1024.2
2019-01-04T04:52:29.196Z,1024.25
2019-01-04T04:53:27.861Z,1024.23
2019-01-04T04:54:26.621Z,1024.23
2019-01-04T04:55:25.188Z,1024.27
2019-01-04T04:56:23.817Z,1024.26
2019-01-04T04:57:22.353Z,1024.27
2019-01-04T04:58:20.898Z,1024.27
2019-01-04T04:59:19.458Z,1024.3
2019-01-04T05:01:59.858Z,1024.28
2019-01-04T05:02:58.640Z,1024.33
2019-01-04T05:03:57.191Z,1024.26
2019-01-04T05:04:55.817Z,1024.29
2019-01-04T05:05:54.469Z,1024.31
2019-01-04T05:06:53.076Z,1024.27
2019-01-04T05:07:51.575Z,1024.23
2019-01-04T05:08:50.400Z,1024.28
2019-01-04T05:09:48.943Z,1024.23
2019-01-04T05:10:47.484Z,1024.22
2019-01-04T05:11:46.437Z,1024.14
2019-01-04T05:12:44.987Z,1024.17
2019-01-04T05:13:43.535Z,1024.18
2019-01-04T05:14:42.062Z,1024.09
2019-01-04T05:15:40.599Z,1024.09
2019-01-04T05:16:39.139Z,1024.01
2019-01-04T05:17:37.747Z,1024.03
2019-01-04T05:18:36.597Z,1023.96
2019-01-04T05:21:01.229Z,1023.9
2019-01-04T05:21:59.896Z,1023.94
2019-01-04T05:22:58.433Z,1023.94
2019-01-04T05:23:57.000Z,1023.95
2019-01-04T05:24:55.553Z,1023.99
2019-01-04T05:25:54.191Z,1023.98
2019-01-04T05:26:52.714Z,1024.07
2019-01-04T05:27:51.288Z,1024
2019-01-04T05:28:50.030Z,1024.01
2019-01-04T05:29:48.692Z,1024
2019-01-04T05:30:47.648Z,1024.07
2019-01-04T05:31:46.152Z,1024.1
2019-01-04T05:32:44.679Z,1024.08
2019-01-04T05:33:43.221Z,1024.11
2019-01-04T05:34:42.030Z,1024.13
2019-01-04T05:35:40.668Z,1024.11
2019-01-04T05:36:39.241Z,1024.11
2019-01-04T05:37:38.110Z,1024.07
2019-01-04T05:38:36.666Z,1024.04
2019-01-04T05:39:35.205Z,1023.99
2019-01-04T05:40:33.789Z,1024
2019-01-04T05:41:32.333Z,1023.96
2019-01-04T05:42:30.930Z,1023.93
2019-01-04T05:43:29.498Z,1023.95
2019-01-04T05:44:28.301Z,1023.9
2019-01-04T05:45:26.860Z,1023.86
2019-01-04T05:46:25.373Z,1023.88
2019-01-04T05:47:24.265Z,1023.81
2019-01-04T05:48:22.807Z,1023.84
2019-01-04T05:49:21.386Z,1023.9
2019-01-04T05:50:19.933Z,1023.88
2019-01-04T05:51:18.497Z,1023.89
2019-01-04T05:52:17.059Z,1023.86
2019-01-04T05:53:15.592Z,1023.95
2019-01-04T05:54:14.457Z,1023.93
2019-01-04T05:55:13.079Z,1023.91
2019-01-04T05:56:11.878Z,1023.92
2019-01-04T05:57:10.502Z,1023.98
2019-01-04T05:58:09.026Z,1023.96
2019-01-04T05:59:07.582Z,1023.96
2019-01-04T06:00:06.803Z,1023.92
2019-01-04T06:01:05.532Z,1023.95
2019-01-04T06:02:04.070Z,1023.87
2019-01-04T06:03:02.696Z,1023.92
2019-01-04T06:04:01.243Z,1023.87
2019-01-04T06:05:00.165Z,1023.87
2019-01-04T06:05:58.744Z,1023.9
2019-01-04T06:06:58.216Z,1023.94
2019-01-04T06:07:56.805Z,1023.92
2019-01-04T06:08:55.469Z,1023.88
2019-01-04T06:09:54.122Z,1023.89
2019-01-04T06:10:52.659Z,1023.89
2019-01-04T06:11:51.253Z,1023.91
2019-01-04T06:12:49.773Z,1023.91
2019-01-04T06:13:48.296Z,1023.91
2019-01-04T06:14:46.840Z,1023.93
2019-01-04T06:15:45.382Z,1023.96
2019-01-04T06:16:44.248Z,1023.92
2019-01-04T06:17:42.797Z,1023.89
2019-01-04T06:18:41.684Z,1023.95
2019-01-04T06:19:40.299Z,1023.96
2019-01-04T06:20:38.853Z,1023.92
2019-01-04T06:21:37.405Z,1023.96
2019-01-04T06:22:35.968Z,1023.93
2019-01-04T06:23:34.728Z,1023.96
2019-01-04T06:24:33.254Z,1023.97
2019-01-04T06:25:31.952Z,1023.91
2019-01-04T06:26:30.641Z,1023.87
2019-01-04T06:27:29.180Z,1023.82
2019-01-04T06:28:27.867Z,1023.77
2019-01-04T06:29:26.433Z,1023.78
2019-01-04T06:30:24.954Z,1023.8
2019-01-04T06:31:23.510Z,1023.79
2019-01-04T06:32:22.437Z,1023.81
2019-01-04T06:33:20.745Z,1023.83
2019-01-04T06:34:19.278Z,1023.85
2019-01-04T06:35:18.054Z,1023.8
2019-01-04T06:36:16.761Z,1023.81
2019-01-04T06:37:15.387Z,1023.88
2019-01-04T06:38:14.040Z,1023.89
2019-01-04T06:39:12.579Z,1023.93
2019-01-04T06:40:11.108Z,1023.96
2019-01-04T06:41:09.784Z,1023.96
2019-01-04T06:42:08.475Z,1023.89
2019-01-04T06:43:07.016Z,1023.9
2019-01-04T06:46:46.240Z,1024.08
2019-01-04T06:47:44.790Z,1024.1
2019-01-04T06:48:43.363Z,1024.12
2019-01-04T06:49:42.169Z,1024.15
2019-01-04T06:50:40.878Z,1024.18
2019-01-04T06:51:39.665Z,1024.14
2019-01-04T06:52:38.236Z,1024.17
2019-01-04T06:53:36.853Z,1024.16
2019-01-04T06:54:35.397Z,1024.2
2019-01-04T06:55:34.276Z,1024.22
2019-01-04T06:56:33.003Z,1024.23
2019-01-04T06:57:31.683Z,1024.19
2019-01-04T06:58:30.279Z,1024.21
2019-01-04T06:59:28.807Z,1024.19
2019-01-04T07:00:27.559Z,1024.17
2019-01-04T07:01:26.293Z,1024.22
2019-01-04T07:02:24.831Z,1024.25
2019-01-04T07:03:23.375Z,1024.19
2019-01-04T07:04:22.335Z,1024.23
2019-01-04T07:05:20.883Z,1024.26
2019-01-04T07:06:20.005Z,1024.33
2019-01-04T07:07:18.738Z,1024.35
2019-01-04T07:08:17.277Z,1024.37
2019-01-04T07:09:15.906Z,1024.31
2019-01-04T07:10:14.509Z,1024.35
2019-01-04T07:11:13.330Z,1024.29
2019-01-04T07:12:12.710Z,1024.32
2019-01-04T07:13:11.301Z,1024.31
2019-01-04T07:14:10.000Z,1024.4
2019-01-04T07:15:08.780Z,1024.36
2019-01-04T07:16:34.883Z,1024.4
2019-01-04T07:17:33.441Z,1024.42
2019-01-04T07:18:32.415Z,1024.4
2019-01-04T07:19:30.962Z,1024.39
2019-01-04T07:20:29.519Z,1024.42
2019-01-04T07:21:28.431Z,1024.47
2019-01-04T07:22:26.993Z,1024.43
2019-01-04T07:23:25.515Z,1024.51
2019-01-04T07:24:24.154Z,1024.53
2019-01-04T07:25:22.910Z,1024.5
2019-01-04T07:26:21.430Z,1024.43
2019-01-04T07:27:20.434Z,1024.48
2019-01-04T07:28:19.035Z,1024.46
2019-01-04T07:29:18.009Z,1024.48
2019-01-04T07:30:16.705Z,1024.55
2019-01-04T07:31:15.242Z,1024.56
2019-01-04T07:32:14.065Z,1024.64
2019-01-04T07:33:12.670Z,1024.64
2019-01-04T07:34:11.436Z,1024.61
2019-01-04T07:35:10.080Z,1024.55
2019-01-04T07:36:08.754Z,1024.57
2019-01-04T07:37:07.322Z,1024.55
2019-01-04T07:38:06.130Z,1024.54
2019-01-04T07:39:04.707Z,1024.49
2019-01-04T07:40:03.398Z,1024.5
2019-01-04T07:41:02.323Z,1024.54
2019-01-04T07:42:00.953Z,1024.52
2019-01-04T07:42:59.713Z,1024.54
2019-01-04T07:43:58.574Z,1024.55
2019-01-04T07:44:57.135Z,1024.6
2019-01-04T07:45:55.798Z,1024.61
2019-01-04T07:46:54.697Z,1024.64
2019-01-04T07:47:53.260Z,1024.53
2019-01-04T07:48:51.782Z,1024.57
2019-01-04T07:49:50.348Z,1024.57
2019-01-04T07:50:48.864Z,1024.65
2019-01-04T07:51:47.360Z,1024.66
2019-01-04T07:52:45.867Z,1024.67
2019-01-04T07:53:44.499Z,1024.7
2019-01-04T07:54:43.124Z,1024.7
2019-01-04T07:55:42.374Z,1024.68
2019-01-04T07:56:40.944Z,1024.73
2019-01-04T07:57:39.458Z,1024.71
2019-01-04T07:58:37.991Z,1024.77
2019-01-04T07:59:36.541Z,1024.81
2019-01-04T08:00:35.075Z,1024.8
2019-01-04T08:01:33.649Z,1024.8
2019-01-04T08:02:32.514Z,1024.8
2019-01-04T08:03:31.072Z,1024.82
2019-01-04T08:04:29.736Z,1024.88
2019-01-04T08:05:28.450Z,1024.86
2019-01-04T08:06:27.058Z,1024.88
2019-01-04T08:07:25.595Z,1024.84
2019-01-04T08:08:24.646Z,1024.83
2019-01-04T08:09:23.191Z,1024.83
2019-01-04T08:10:22.068Z,1024.84
2019-01-04T08:11:20.653Z,1024.82
2019-01-04T08:12:19.260Z,1024.84
2019-01-04T08:13:17.757Z,1024.91
2019-01-04T08:14:16.397Z,1024.93
2019-01-04T08:15:14.978Z,1024.9
2019-01-04T08:16:13.588Z,1024.94
2019-01-04T08:17:12.174Z,1024.87
2019-01-04T08:18:10.756Z,1024.85
2019-01-04T08:20:50.837Z,1024.81
2019-01-04T08:21:49.430Z,1024.81
2019-01-04T08:22:48.299Z,1024.8
2019-01-04T08:23:46.831Z,1024.79
2019-01-04T08:24:45.420Z,1024.84
2019-01-04T08:25:44.602Z,1024.84
2019-01-04T08:26:43.451Z,1024.88
2019-01-04T08:27:41.777Z,1024.95
2019-01-04T08:28:40.548Z,1024.92
2019-01-04T08:29:39.861Z,1024.96
2019-01-04T08:30:38.488Z,1024.97
2019-01-04T08:31:37.017Z,1025
2019-01-04T08:32:35.533Z,1024.9
2019-01-04T08:33:34.365Z,1024.95
2019-01-04T08:34:32.856Z,1024.99
2019-01-04T08:35:31.437Z,1025.04
2019-01-04T08:36:30.365Z,1025.07
2019-01-04T08:37:28.900Z,1025.08
2019-01-04T08:38:27.464Z,1025.09
2019-01-04T08:39:26.024Z,1025.11
2019-01-04T08:40:24.599Z,1025.06
2019-01-04T08:41:23.111Z,1024.99
2019-01-04T08:42:21.612Z,1025
2019-01-04T08:43:20.518Z,1024.97
2019-01-04T08:44:19.060Z,1024.98
2019-01-04T08:45:17.595Z,1024.95
2019-01-04T08:46:16.492Z,1024.98
2019-01-04T08:47:15.041Z,1024.96
2019-01-04T08:48:13.695Z,1024.97
2019-01-04T08:49:12.238Z,1024.95
2019-01-04T08:50:10.936Z,1025.01
2019-01-04T08:51:09.490Z,1024.99
2019-01-04T08:52:08.177Z,1025.02
2019-01-04T08:53:06.922Z,1024.99
2019-01-04T08:54:05.468Z,1025
2019-01-04T08:55:04.484Z,1024.92
2019-01-04T08:56:02.775Z,1024.92
2019-01-04T08:57:01.303Z,1024.95
2019-01-04T08:57:59.835Z,1024.88
2019-01-04T08:58:58.373Z,1024.92
2019-01-04T08:59:56.954Z,1024.93
2019-01-04T09:00:56.118Z,1024.92
2019-01-04T09:01:54.725Z,1024.89
2019-01-04T09:02:53.282Z,1024.88
2019-01-04T09:03:51.889Z,1024.87
2019-01-04T09:04:50.416Z,1024.84
2019-01-04T09:05:48.916Z,1024.82
2019-01-04T09:06:47.500Z,1024.77
2019-01-04T09:07:46.040Z,1024.78
2019-01-04T09:08:44.803Z,1024.81
2019-01-04T09:09:43.322Z,1024.8
2019-01-04T09:10:42.000Z,1024.81
2019-01-04T09:11:40.655Z,1024.85
2019-01-04T09:12:39.181Z,1024.85
2019-01-04T09:13:37.946Z,1024.83
2019-01-04T09:14:36.506Z,1024.89
2019-01-04T09:15:35.038Z,1024.87
2019-01-04T09:16:33.523Z,1024.86
2019-01-04T09:17:32.070Z,1024.86
2019-01-04T09:18:31.393Z,1024.78
2019-01-04T09:19:30.188Z,1024.84
2019-01-04T09:20:28.626Z,1024.8
2019-01-04T09:21:27.191Z,1024.83
2019-01-04T09:22:25.680Z,1024.82
2019-01-04T09:23:24.228Z,1024.81
2019-01-04T09:24:22.757Z,1024.85
2019-01-04T09:25:21.575Z,1024.83
2019-01-04T09:26:20.252Z,1024.79
2019-01-04T09:27:18.970Z,1024.86
2019-01-04T09:28:18.057Z,1024.83
2019-01-04T09:30:57.828Z,1024.76
2019-01-04T09:31:56.578Z,1024.8
2019-01-04T09:32:55.138Z,1024.75
2019-01-04T09:33:53.758Z,1024.78
2019-01-04T09:34:52.604Z,1024.84
2019-01-04T09:35:51.134Z,1024.8
2019-01-04T09:36:49.772Z,1024.77
2019-01-04T09:37:48.283Z,1024.78
2019-01-04T09:38:46.858Z,1024.73
2019-01-04T09:39:45.410Z,1024.81
2019-01-04T09:40:43.950Z,1024.75
2019-01-04T09:41:42.559Z,1024.72
2019-01-04T09:42:41.102Z,1024.74
2019-01-04T09:43:39.616Z,1024.78
2019-01-04T09:44:38.487Z,1024.79
2019-01-04T09:45:37.019Z,1024.77
2019-01-04T09:46:35.564Z,1024.76
2019-01-04T09:47:34.440Z,1024.73
2019-01-04T09:49:58.163Z,1024.7
2019-01-04T09:50:56.723Z,1024.72
2019-01-04T09:51:55.290Z,1024.74
2019-01-04T09:52:54.179Z,1024.73
2019-01-04T09:53:52.868Z,1024.78
2019-01-04T09:54:51.411Z,1024.75
2019-01-04T09:55:50.703Z,1024.73
2019-01-04T09:56:49.272Z,1024.74
2019-01-04T09:57:47.888Z,1024.76
2019-01-04T09:58:46.442Z,1024.83
2019-01-04T09:59:44.980Z,1024.8
2019-01-04T10:00:43.528Z,1024.78
2019-01-04T10:01:42.520Z,1024.73
2019-01-04T10:02:41.081Z,1024.69
2019-01-04T10:03:39.695Z,1024.68
2019-01-04T10:04:38.543Z,1024.72
2019-01-04T10:05:37.101Z,1024.65
2019-01-04T10:06:35.663Z,1024.63
2019-01-04T10:07:34.594Z,1024.62
2019-01-04T10:08:33.142Z,1024.62
2019-01-04T10:09:31.726Z,1024.63
2019-01-04T10:10:30.483Z,1024.62
2019-01-04T10:11:29.009Z,1024.58
2019-01-04T10:12:27.608Z,1024.6
2019-01-04T10:13:26.200Z,1024.59
2019-01-04T10:14:24.787Z,1024.54
2019-01-04T10:15:23.314Z,1024.53
2019-01-04T10:16:22.234Z,1024.48
2019-01-04T10:17:20.906Z,1024.51
2019-01-04T10:18:19.683Z,1024.48
2019-01-04T10:19:18.219Z,1024.51
2019-01-04T10:20:16.822Z,1024.46
2019-01-04T10:21:15.402Z,1024.44
2019-01-04T10:23:55.796Z,1024.33
2019-01-04T10:24:55.153Z,1024.29
2019-01-04T10:25:53.735Z,1024.32
2019-01-04T10:26:52.651Z,1024.29
2019-01-04T10:27:51.190Z,1024.33
2019-01-04T10:28:49.866Z,1024.36
2019-01-04T10:29:48.585Z,1024.31
2019-01-04T10:30:47.130Z,1024.32
2019-01-04T10:31:45.975Z,1024.22
2019-01-04T10:42:23.668Z,1024.11
2019-01-04T10:43:22.545Z,1024.14
2019-01-04T10:44:21.129Z,1024.14
2019-01-04T10:45:19.857Z,1024.1
2019-01-04T10:46:18.702Z,1024.14
2019-01-04T10:47:17.343Z,1024.12
2019-01-04T10:48:16.217Z,1024.15
2019-01-04T10:49:14.741Z,1024.15
2019-01-04T10:50:13.262Z,1024.11
2019-01-04T10:51:11.856Z,1024.12
2019-01-04T10:52:10.427Z,1024.1
2019-01-04T10:53:08.972Z,1024.05
2019-01-04T10:54:07.491Z,1024.04
2019-01-04T10:55:06.425Z,1024.05
2019-01-04T10:56:05.139Z,1024.02
2019-01-04T10:57:04.413Z,1024.04
2019-01-04T10:58:02.984Z,1024
2019-01-04T10:59:01.613Z,1023.92
2019-01-04T11:00:00.490Z,1023.9
2019-01-04T11:00:59.133Z,1023.91
2019-01-04T11:01:57.633Z,1023.92
2019-01-04T11:02:56.479Z,1023.93
2019-01-04T11:03:55.058Z,1023.93
2019-01-04T11:04:53.618Z,1023.9
2019-01-04T11:05:52.514Z,1023.88
2019-01-04T11:06:51.163Z,1023.85
2019-01-04T11:07:49.761Z,1023.89
2019-01-04T11:08:48.617Z,1023.88
2019-01-04T11:09:47.213Z,1023.88
2019-01-04T11:10:45.989Z,1023.94
2019-01-04T11:11:44.562Z,1023.9
2019-01-04T11:12:43.166Z,1023.9
2019-01-04T11:13:41.710Z,1023.9
2019-01-04T11:14:40.671Z,1023.88
2019-01-04T11:15:39.241Z,1023.87
2019-01-04T11:16:37.879Z,1023.85
2019-01-04T11:17:36.573Z,1023.86
2019-01-04T11:18:35.165Z,1023.87
2019-01-04T11:19:33.744Z,1023.84
2019-01-04T11:20:32.293Z,1023.83
2019-01-04T11:21:30.793Z,1023.82
2019-01-04T11:22:29.350Z,1023.87
2019-01-04T11:23:28.003Z,1023.88
2019-01-04T11:24:26.694Z,1023.87
2019-01-04T11:25:25.238Z,1023.88
2019-01-04T11:26:23.879Z,1023.87
2019-01-04T11:27:22.619Z,1023.88
2019-01-04T11:28:21.195Z,1023.9
2019-01-04T11:29:19.884Z,1023.84
2019-01-04T11:30:18.396Z,1023.84
2019-01-04T11:31:16.965Z,1023.81
2019-01-04T11:32:15.499Z,1023.82
2019-01-04T11:33:13.986Z,1023.79
2019-01-04T11:34:14.730Z,1023.77
2019-01-04T11:35:13.288Z,1023.73
2019-01-04T11:36:11.987Z,1023.72
2019-01-04T11:37:10.795Z,1023.76
2019-01-04T11:38:09.322Z,1023.75
2019-01-04T11:39:07.978Z,1023.75
2019-01-04T11:40:06.517Z,1023.73
2019-01-04T11:41:05.037Z,1023.68
2019-01-04T11:42:03.579Z,1023.65
2019-01-04T11:43:02.174Z,1023.62
2019-01-04T11:44:00.877Z,1023.57
2019-01-04T11:44:59.438Z,1023.68
2019-01-04T11:45:58.124Z,1023.65
2019-01-04T11:46:56.859Z,1023.64
2019-01-04T11:47:55.424Z,1023.68
2019-01-04T11:48:54.403Z,1023.63
2019-01-04T11:49:52.990Z,1023.6
2019-01-04T11:50:51.544Z,1023.58
2019-01-04T11:51:50.469Z,1023.58
2019-01-04T11:52:49.047Z,1023.67
2019-01-04T11:53:47.802Z,1023.63
2019-01-04T11:54:46.907Z,1023.62
2019-01-04T11:55:45.516Z,1023.56
2019-01-04T11:56:44.535Z,1023.55
2019-01-04T11:57:44.063Z,1023.53
2019-01-04T11:58:42.311Z,1023.53
2019-01-04T11:59:41.946Z,1023.52
2019-01-04T12:00:40.929Z,1023.47
2019-01-04T12:01:39.896Z,1023.46
2019-01-04T12:02:38.556Z,1023.45
2019-01-04T12:03:38.010Z,1023.42
2019-01-04T12:04:39.450Z,1023.35
2019-01-04T12:05:39.555Z,1023.34
2019-01-04T12:06:37.805Z,1023.3
2019-01-04T12:07:37.989Z,1023.29
2019-01-04T12:08:37.359Z,1023.25
2019-01-04T12:09:35.937Z,1023.22
2019-01-04T12:10:35.206Z,1023.28
2019-01-04T12:11:33.949Z,1023.29
2019-01-04T12:12:32.784Z,1023.31
2019-01-04T12:13:31.382Z,1023.26
2019-01-04T12:14:30.352Z,1023.24
2019-01-04T12:15:29.901Z,1023.21
2019-01-04T12:16:29.303Z,1023.16
2019-01-04T12:17:27.860Z,1023.12
2019-01-04T12:18:26.479Z,1023.08
2019-01-04T12:19:25.198Z,1023.08
2019-01-04T12:20:24.121Z,1023.02
2019-01-04T12:21:22.751Z,1022.98
2019-01-04T12:22:21.950Z,1023
2019-01-04T12:23:21.028Z,1022.94
2019-01-04T12:24:19.869Z,1022.92